Terminal Aerodrome Forecast
Issued by NWS

Home | Current Version | Previous Version | Text Only | Print | Product List | Glossary On
Versions: 1 2 3 4 5 6 7 8 9 10 11 12 13
398
FTUS46 KLOX 252327
TAFOXR
TAF
KOXR 252327Z 2600/2624 27012KT P6SM SKC
     FM260400 VRB03KT P6SM SKC
     FM260600 06010KT P6SM SKC
     FM261300 07020G28KT P6SM SKC
     FM262100 26012KT P6SM SKC=

USA.gov is the U.S. government's official web portal to all federal, state and local government web resources and services.